sensor_id;sensor_type;location;lat;lon;timestamp;P1;durP1;ratioP1;P2;durP2;ratioP2
57561;SDS011;43397;51.530;5.974;2023-03-01T00:02:04;19.30;;;11.85;;
57561;SDS011;43397;51.530;5.974;2023-03-01T00:04:30;15.55;;;10.52;;
57561;SDS011;43397;51.530;5.974;2023-03-01T00:06:56;14.88;;;10.10;;
57561;SDS011;43397;51.530;5.974;2023-03-01T00:09:22;14.93;;;10.52;;
57561;SDS011;43397;51.530;5.974;2023-03-01T00:11:47;15.20;;;10.48;;
57561;SDS011;43397;51.530;5.974;2023-03-01T00:14:15;16.98;;;11.75;;
57561;SDS011;43397;51.530;5.974;2023-03-01T00:16:41;14.60;;;10.52;;
57561;SDS011;43397;51.530;5.974;2023-03-01T00:19:10;16.85;;;10.23;;
57561;SDS011;43397;51.530;5.974;2023-03-01T00:21:38;13.90;;;10.98;;
57561;SDS011;43397;51.530;5.974;2023-03-01T00:24:04;14.68;;;9.88;;
57561;SDS011;43397;51.530;5.974;2023-03-01T00:26:30;14.73;;;10.85;;
57561;SDS011;43397;51.530;5.974;2023-03-01T00:28:56;14.23;;;11.13;;
57561;SDS011;43397;51.530;5.974;2023-03-01T00:31:24;14.57;;;10.27;;
57561;SDS011;43397;51.530;5.974;2023-03-01T00:33:52;17.27;;;10.73;;
57561;SDS011;43397;51.530;5.974;2023-03-01T00:36:18;17.23;;;11.27;;
57561;SDS011;43397;51.530;5.974;2023-03-01T00:38:44;15.50;;;10.88;;
57561;SDS011;43397;51.530;5.974;2023-03-01T00:41:11;16.58;;;11.10;;
57561;SDS011;43397;51.530;5.974;2023-03-01T00:43:38;17.35;;;11.73;;
57561;SDS011;43397;51.530;5.974;2023-03-01T00:46:05;14.63;;;11.18;;
57561;SDS011;43397;51.530;5.974;2023-03-01T00:48:35;13.98;;;10.00;;
57561;SDS011;43397;51.530;5.974;2023-03-01T00:51:05;14.65;;;11.02;;
57561;SDS011;43397;51.530;5.974;2023-03-01T00:53:32;16.27;;;11.50;;
57561;SDS011;43397;51.530;5.974;2023-03-01T00:55:58;13.52;;;10.05;;
57561;SDS011;43397;51.530;5.974;2023-03-01T00:58:24;16.88;;;10.93;;
57561;SDS011;43397;51.530;5.974;2023-03-01T01:00:50;16.67;;;10.40;;
57561;SDS011;43397;51.530;5.974;2023-03-01T01:03:15;14.20;;;9.60;;
57561;SDS011;43397;51.530;5.974;2023-03-01T01:05:42;16.60;;;11.45;;
57561;SDS011;43397;51.530;5.974;2023-03-01T01:08:08;14.20;;;11.07;;
57561;SDS011;43397;51.530;5.974;2023-03-01T01:10:34;13.85;;;9.90;;
57561;SDS011;43397;51.530;5.974;2023-03-01T01:13:00;13.80;;;10.18;;
57561;SDS011;43397;51.530;5.974;2023-03-01T01:15:26;13.90;;;9.90;;
57561;SDS011;43397;51.530;5.974;2023-03-01T01:17:52;15.18;;;11.02;;
57561;SDS011;43397;51.530;5.974;2023-03-01T01:20:18;16.33;;;9.88;;
57561;SDS011;43397;51.530;5.974;2023-03-01T01:22:46;15.38;;;10.52;;
57561;SDS011;43397;51.530;5.974;2023-03-01T01:25:11;15.45;;;10.68;;
57561;SDS011;43397;51.530;5.974;2023-03-01T01:27:37;15.85;;;10.85;;
57561;SDS011;43397;51.530;5.974;2023-03-01T01:30:03;15.93;;;10.45;;
57561;SDS011;43397;51.530;5.974;2023-03-01T01:32:30;17.70;;;11.50;;
57561;SDS011;43397;51.530;5.974;2023-03-01T01:34:56;14.18;;;10.75;;
57561;SDS011;43397;51.530;5.974;2023-03-01T01:37:22;16.42;;;10.93;;
57561;SDS011;43397;51.530;5.974;2023-03-01T01:39:49;16.00;;;11.25;;
57561;SDS011;43397;51.530;5.974;2023-03-01T01:42:15;16.00;;;11.07;;
57561;SDS011;43397;51.530;5.974;2023-03-01T01:44:42;17.70;;;11.05;;
57561;SDS011;43397;51.530;5.974;2023-03-01T01:47:12;17.02;;;11.07;;
57561;SDS011;43397;51.530;5.974;2023-03-01T01:49:42;18.55;;;11.70;;
57561;SDS011;43397;51.530;5.974;2023-03-01T01:52:14;16.70;;;10.82;;
57561;SDS011;43397;51.530;5.974;2023-03-01T01:54:44;17.23;;;10.90;;
57561;SDS011;43397;51.530;5.974;2023-03-01T01:57:16;17.48;;;11.30;;
57561;SDS011;43397;51.530;5.974;2023-03-01T01:59:47;22.50;;;11.45;;
57561;SDS011;43397;51.530;5.974;2023-03-01T02:02:16;14.65;;;11.00;;
57561;SDS011;43397;51.530;5.974;2023-03-01T02:04:43;16.25;;;11.20;;
57561;SDS011;43397;51.530;5.974;2023-03-01T02:07:10;16.45;;;11.60;;
57561;SDS011;43397;51.530;5.974;2023-03-01T02:09:41;16.13;;;11.73;;
57561;SDS011;43397;51.530;5.974;2023-03-01T02:12:10;16.10;;;11.37;;
57561;SDS011;43397;51.530;5.974;2023-03-01T02:14:38;18.65;;;11.88;;
57561;SDS011;43397;51.530;5.974;2023-03-01T02:17:04;19.38;;;11.35;;
57561;SDS011;43397;51.530;5.974;2023-03-01T02:19:36;17.08;;;11.18;;
57561;SDS011;43397;51.530;5.974;2023-03-01T02:22:12;19.10;;;11.88;;
57561;SDS011;43397;51.530;5.974;2023-03-01T02:24:47;20.35;;;11.35;;
57561;SDS011;43397;51.530;5.974;2023-03-01T02:27:25;16.65;;;10.80;;
57561;SDS011;43397;51.530;5.974;2023-03-01T02:29:56;17.20;;;11.02;;
57561;SDS011;43397;51.530;5.974;2023-03-01T02:32:22;17.33;;;11.63;;
57561;SDS011;43397;51.530;5.974;2023-03-01T02:34:47;16.35;;;11.55;;
57561;SDS011;43397;51.530;5.974;2023-03-01T02:37:14;16.38;;;11.38;;
57561;SDS011;43397;51.530;5.974;2023-03-01T02:39:42;17.63;;;11.20;;
57561;SDS011;43397;51.530;5.974;2023-03-01T02:42:13;16.27;;;11.05;;
57561;SDS011;43397;51.530;5.974;2023-03-01T02:44:43;18.38;;;12.73;;
57561;SDS011;43397;51.530;5.974;2023-03-01T02:47:10;20.70;;;12.15;;
57561;SDS011;43397;51.530;5.974;2023-03-01T02:49:36;18.20;;;12.13;;
57561;SDS011;43397;51.530;5.974;2023-03-01T02:55:05;15.60;;;10.15;;
57561;SDS011;43397;51.530;5.974;2023-03-01T02:57:34;14.55;;;10.07;;
57561;SDS011;43397;51.530;5.974;2023-03-01T03:00:03;21.05;;;11.25;;
57561;SDS011;43397;51.530;5.974;2023-03-01T03:04:59;16.80;;;11.65;;
57561;SDS011;43397;51.530;5.974;2023-03-01T03:07:25;15.00;;;10.65;;
57561;SDS011;43397;51.530;5.974;2023-03-01T03:09:50;16.35;;;11.52;;
57561;SDS011;43397;51.530;5.974;2023-03-01T03:12:16;17.48;;;11.18;;
57561;SDS011;43397;51.530;5.974;2023-03-01T03:14:42;17.30;;;12.00;;
57561;SDS011;43397;51.530;5.974;2023-03-01T03:17:07;18.90;;;11.20;;
57561;SDS011;43397;51.530;5.974;2023-03-01T03:19:34;14.20;;;11.68;;
57561;SDS011;43397;51.530;5.974;2023-03-01T03:22:00;16.65;;;11.90;;
57561;SDS011;43397;51.530;5.974;2023-03-01T03:24:26;16.05;;;11.52;;
57561;SDS011;43397;51.530;5.974;2023-03-01T03:26:53;16.13;;;11.18;;
57561;SDS011;43397;51.530;5.974;2023-03-01T03:29:19;18.63;;;12.27;;
57561;SDS011;43397;51.530;5.974;2023-03-01T03:31:48;15.32;;;11.25;;
57561;SDS011;43397;51.530;5.974;2023-03-01T03:34:13;17.13;;;11.30;;
57561;SDS011;43397;51.530;5.974;2023-03-01T03:36:40;19.52;;;11.20;;
57561;SDS011;43397;51.530;5.974;2023-03-01T03:39:06;16.23;;;10.75;;
57561;SDS011;43397;51.530;5.974;2023-03-01T03:41:34;17.40;;;11.30;;
57561;SDS011;43397;51.530;5.974;2023-03-01T03:43:59;19.70;;;11.18;;
57561;SDS011;43397;51.530;5.974;2023-03-01T03:46:25;19.30;;;12.30;;
57561;SDS011;43397;51.530;5.974;2023-03-01T03:48:51;15.80;;;11.38;;
57561;SDS011;43397;51.530;5.974;2023-03-01T03:51:17;17.30;;;11.90;;
57561;SDS011;43397;51.530;5.974;2023-03-01T03:53:45;17.55;;;10.50;;
57561;SDS011;43397;51.530;5.974;2023-03-01T03:56:11;15.35;;;11.57;;
57561;SDS011;43397;51.530;5.974;2023-03-01T03:58:37;14.60;;;10.60;;
57561;SDS011;43397;51.530;5.974;2023-03-01T04:01:03;18.85;;;12.48;;
57561;SDS011;43397;51.530;5.974;2023-03-01T04:03:29;16.80;;;11.07;;
57561;SDS011;43397;51.530;5.974;2023-03-01T04:05:56;17.52;;;11.60;;
57561;SDS011;43397;51.530;5.974;2023-03-01T04:08:23;15.48;;;11.55;;
57561;SDS011;43397;51.530;5.974;2023-03-01T04:10:52;15.77;;;11.70;;
57561;SDS011;43397;51.530;5.974;2023-03-01T04:13:22;13.77;;;9.10;;
57561;SDS011;43397;51.530;5.974;2023-03-01T04:15:48;15.70;;;11.90;;
57561;SDS011;43397;51.530;5.974;2023-03-01T04:18:14;16.17;;;11.50;;
57561;SDS011;43397;51.530;5.974;2023-03-01T04:20:43;19.30;;;11.98;;
57561;SDS011;43397;51.530;5.974;2023-03-01T04:23:10;19.60;;;11.23;;
57561;SDS011;43397;51.530;5.974;2023-03-01T04:25:38;23.73;;;12.90;;
57561;SDS011;43397;51.530;5.974;2023-03-01T04:28:06;24.08;;;12.85;;
57561;SDS011;43397;51.530;5.974;2023-03-01T04:30:32;17.60;;;11.75;;
57561;SDS011;43397;51.530;5.974;2023-03-01T04:32:57;18.42;;;13.55;;
57561;SDS011;43397;51.530;5.974;2023-03-01T04:35:23;22.42;;;13.00;;
57561;SDS011;43397;51.530;5.974;2023-03-01T04:37:49;22.58;;;13.07;;
57561;SDS011;43397;51.530;5.974;2023-03-01T04:40:15;22.75;;;12.85;;
57561;SDS011;43397;51.530;5.974;2023-03-01T04:42:41;20.83;;;13.00;;
57561;SDS011;43397;51.530;5.974;2023-03-01T04:45:09;23.23;;;13.68;;
57561;SDS011;43397;51.530;5.974;2023-03-01T04:47:36;22.45;;;13.43;;
57561;SDS011;43397;51.530;5.974;2023-03-01T04:50:02;19.08;;;12.10;;
57561;SDS011;43397;51.530;5.974;2023-03-01T04:52:28;20.83;;;14.13;;
57561;SDS011;43397;51.530;5.974;2023-03-01T04:54:54;18.80;;;12.85;;
57561;SDS011;43397;51.530;5.974;2023-03-01T04:57:19;19.13;;;12.68;;
57561;SDS011;43397;51.530;5.974;2023-03-01T04:59:45;21.88;;;14.20;;
57561;SDS011;43397;51.530;5.974;2023-03-01T05:02:12;19.40;;;12.27;;
57561;SDS011;43397;51.530;5.974;2023-03-01T05:04:38;21.00;;;13.15;;
57561;SDS011;43397;51.530;5.974;2023-03-01T05:07:04;19.45;;;13.05;;
57561;SDS011;43397;51.530;5.974;2023-03-01T05:09:30;24.33;;;12.63;;
57561;SDS011;43397;51.530;5.974;2023-03-01T05:11:56;18.20;;;11.70;;
57561;SDS011;43397;51.530;5.974;2023-03-01T05:14:22;21.00;;;12.45;;
57561;SDS011;43397;51.530;5.974;2023-03-01T05:16:47;21.83;;;13.55;;
57561;SDS011;43397;51.530;5.974;2023-03-01T05:19:15;16.42;;;11.55;;
57561;SDS011;43397;51.530;5.974;2023-03-01T05:21:41;18.10;;;12.95;;
57561;SDS011;43397;51.530;5.974;2023-03-01T05:24:07;20.80;;;12.68;;
57561;SDS011;43397;51.530;5.974;2023-03-01T05:26:33;18.10;;;11.57;;
57561;SDS011;43397;51.530;5.974;2023-03-01T05:28:58;17.60;;;12.02;;
57561;SDS011;43397;51.530;5.974;2023-03-01T05:31:24;22.20;;;12.57;;
57561;SDS011;43397;51.530;5.974;2023-03-01T05:33:50;18.60;;;12.98;;
57561;SDS011;43397;51.530;5.974;2023-03-01T05:36:17;20.27;;;12.88;;
57561;SDS011;43397;51.530;5.974;2023-03-01T05:38:43;22.63;;;14.32;;
57561;SDS011;43397;51.530;5.974;2023-03-01T05:41:13;22.65;;;11.82;;
57561;SDS011;43397;51.530;5.974;2023-03-01T05:43:39;18.58;;;12.38;;
57561;SDS011;43397;51.530;5.974;2023-03-01T05:46:05;16.30;;;12.15;;
57561;SDS011;43397;51.530;5.974;2023-03-01T05:48:31;25.50;;;12.82;;
57561;SDS011;43397;51.530;5.974;2023-03-01T05:50:57;17.92;;;11.93;;
57561;SDS011;43397;51.530;5.974;2023-03-01T05:53:26;18.33;;;13.13;;
57561;SDS011;43397;51.530;5.974;2023-03-01T05:55:52;18.30;;;12.60;;
57561;SDS011;43397;51.530;5.974;2023-03-01T05:58:19;18.42;;;12.45;;
57561;SDS011;43397;51.530;5.974;2023-03-01T06:00:46;19.45;;;13.23;;
57561;SDS011;43397;51.530;5.974;2023-03-01T06:03:13;22.90;;;13.60;;
57561;SDS011;43397;51.530;5.974;2023-03-01T06:05:40;18.85;;;13.25;;
57561;SDS011;43397;51.530;5.974;2023-03-01T06:08:06;20.27;;;13.57;;
57561;SDS011;43397;51.530;5.974;2023-03-01T06:10:34;18.67;;;13.07;;
57561;SDS011;43397;51.530;5.974;2023-03-01T06:12:59;17.50;;;13.00;;
57561;SDS011;43397;51.530;5.974;2023-03-01T06:15:25;22.17;;;13.73;;
57561;SDS011;43397;51.530;5.974;2023-03-01T06:17:53;21.13;;;12.93;;
57561;SDS011;43397;51.530;5.974;2023-03-01T06:20:20;20.65;;;12.90;;
57561;SDS011;43397;51.530;5.974;2023-03-01T06:22:47;19.15;;;13.68;;
57561;SDS011;43397;51.530;5.974;2023-03-01T06:25:15;22.25;;;15.15;;
57561;SDS011;43397;51.530;5.974;2023-03-01T06:27:43;22.45;;;14.35;;
57561;SDS011;43397;51.530;5.974;2023-03-01T06:30:11;20.52;;;13.77;;
57561;SDS011;43397;51.530;5.974;2023-03-01T06:32:38;21.53;;;12.77;;
57561;SDS011;43397;51.530;5.974;2023-03-01T06:35:04;20.95;;;12.90;;
57561;SDS011;43397;51.530;5.974;2023-03-01T06:37:30;19.58;;;12.77;;
57561;SDS011;43397;51.530;5.974;2023-03-01T06:39:56;21.45;;;12.55;;
57561;SDS011;43397;51.530;5.974;2023-03-01T06:42:22;22.00;;;12.80;;
57561;SDS011;43397;51.530;5.974;2023-03-01T06:44:49;19.77;;;13.05;;
57561;SDS011;43397;51.530;5.974;2023-03-01T06:47:15;18.83;;;13.23;;
57561;SDS011;43397;51.530;5.974;2023-03-01T06:49:40;22.50;;;13.93;;
57561;SDS011;43397;51.530;5.974;2023-03-01T06:52:06;18.30;;;12.60;;
57561;SDS011;43397;51.530;5.974;2023-03-01T06:54:32;18.92;;;12.73;;
57561;SDS011;43397;51.530;5.974;2023-03-01T06:56:58;20.60;;;13.40;;
57561;SDS011;43397;51.530;5.974;2023-03-01T06:59:24;20.02;;;12.75;;
57561;SDS011;43397;51.530;5.974;2023-03-01T07:01:51;16.20;;;11.68;;
57561;SDS011;43397;51.530;5.974;2023-03-01T07:04:17;16.77;;;11.73;;
57561;SDS011;43397;51.530;5.974;2023-03-01T07:06:42;21.08;;;12.98;;
57561;SDS011;43397;51.530;5.974;2023-03-01T07:09:08;22.55;;;13.90;;
57561;SDS011;43397;51.530;5.974;2023-03-01T07:11:34;19.00;;;12.10;;
57561;SDS011;43397;51.530;5.974;2023-03-01T07:14:00;16.10;;;11.38;;
57561;SDS011;43397;51.530;5.974;2023-03-01T07:16:26;19.95;;;11.98;;
57561;SDS011;43397;51.530;5.974;2023-03-01T07:18:53;15.85;;;10.65;;
57561;SDS011;43397;51.530;5.974;2023-03-01T07:21:19;16.77;;;11.82;;
57561;SDS011;43397;51.530;5.974;2023-03-01T07:23:47;17.40;;;12.30;;
57561;SDS011;43397;51.530;5.974;2023-03-01T07:26:12;18.00;;;11.85;;
57561;SDS011;43397;51.530;5.974;2023-03-01T07:28:38;14.20;;;10.90;;
57561;SDS011;43397;51.530;5.974;2023-03-01T07:31:04;17.05;;;11.43;;
57561;SDS011;43397;51.530;5.974;2023-03-01T07:33:30;16.65;;;11.43;;
57561;SDS011;43397;51.530;5.974;2023-03-01T07:35:58;13.45;;;10.45;;
57561;SDS011;43397;51.530;5.974;2023-03-01T07:38:25;15.05;;;11.55;;
57561;SDS011;43397;51.530;5.974;2023-03-01T07:40:51;16.15;;;10.25;;
57561;SDS011;43397;51.530;5.974;2023-03-01T07:43:17;14.45;;;10.82;;
57561;SDS011;43397;51.530;5.974;2023-03-01T07:45:44;15.88;;;11.23;;
57561;SDS011;43397;51.530;5.974;2023-03-01T07:48:09;14.45;;;10.55;;
57561;SDS011;43397;51.530;5.974;2023-03-01T07:50:35;17.98;;;11.13;;
57561;SDS011;43397;51.530;5.974;2023-03-01T07:53:02;15.75;;;11.40;;
57561;SDS011;43397;51.530;5.974;2023-03-01T07:55:28;17.13;;;11.55;;
57561;SDS011;43397;51.530;5.974;2023-03-01T07:57:53;11.27;;;8.65;;
57561;SDS011;43397;51.530;5.974;2023-03-01T08:00:20;16.08;;;10.75;;
57561;SDS011;43397;51.530;5.974;2023-03-01T08:02:46;17.83;;;10.50;;
57561;SDS011;43397;51.530;5.974;2023-03-01T08:05:12;13.98;;;10.85;;
57561;SDS011;43397;51.530;5.974;2023-03-01T08:07:38;14.82;;;9.80;;
57561;SDS011;43397;51.530;5.974;2023-03-01T08:10:05;16.00;;;10.45;;
57561;SDS011;43397;51.530;5.974;2023-03-01T08:12:32;15.35;;;10.52;;
57561;SDS011;43397;51.530;5.974;2023-03-01T08:14:58;15.68;;;10.30;;
57561;SDS011;43397;51.530;5.974;2023-03-01T08:17:23;15.63;;;10.40;;
57561;SDS011;43397;51.530;5.974;2023-03-01T08:19:50;14.68;;;9.52;;
57561;SDS011;43397;51.530;5.974;2023-03-01T08:22:16;14.98;;;9.82;;
57561;SDS011;43397;51.530;5.974;2023-03-01T08:24:42;14.82;;;9.93;;
57561;SDS011;43397;51.530;5.974;2023-03-01T08:27:09;12.80;;;8.98;;
57561;SDS011;43397;51.530;5.974;2023-03-01T08:29:35;13.40;;;8.98;;
57561;SDS011;43397;51.530;5.974;2023-03-01T08:32:00;13.68;;;8.88;;
57561;SDS011;43397;51.530;5.974;2023-03-01T08:34:26;11.77;;;8.27;;
57561;SDS011;43397;51.530;5.974;2023-03-01T08:36:52;13.02;;;9.20;;
57561;SDS011;43397;51.530;5.974;2023-03-01T08:39:18;11.48;;;8.68;;
57561;SDS011;43397;51.530;5.974;2023-03-01T08:41:46;13.82;;;9.85;;
57561;SDS011;43397;51.530;5.974;2023-03-01T08:44:14;14.43;;;9.18;;
57561;SDS011;43397;51.530;5.974;2023-03-01T08:46:41;13.57;;;9.13;;
57561;SDS011;43397;51.530;5.974;2023-03-01T08:49:09;13.15;;;8.75;;
57561;SDS011;43397;51.530;5.974;2023-03-01T08:51:37;14.33;;;8.23;;
57561;SDS011;43397;51.530;5.974;2023-03-01T08:54:03;11.65;;;8.23;;
57561;SDS011;43397;51.530;5.974;2023-03-01T08:56:30;14.05;;;8.65;;
57561;SDS011;43397;51.530;5.974;2023-03-01T08:58:55;11.95;;;6.75;;
57561;SDS011;43397;51.530;5.974;2023-03-01T09:01:23;12.70;;;8.68;;
57561;SDS011;43397;51.530;5.974;2023-03-01T09:03:48;11.65;;;7.32;;
57561;SDS011;43397;51.530;5.974;2023-03-01T09:06:14;19.08;;;9.98;;
57561;SDS011;43397;51.530;5.974;2023-03-01T09:08:41;14.45;;;8.70;;
57561;SDS011;43397;51.530;5.974;2023-03-01T09:11:09;12.88;;;8.77;;
57561;SDS011;43397;51.530;5.974;2023-03-01T09:13:36;13.48;;;9.30;;
57561;SDS011;43397;51.530;5.974;2023-03-01T09:16:03;12.90;;;10.32;;
57561;SDS011;43397;51.530;5.974;2023-03-01T09:18:32;11.32;;;7.97;;
57561;SDS011;43397;51.530;5.974;2023-03-01T09:21:02;13.45;;;9.23;;
57561;SDS011;43397;51.530;5.974;2023-03-01T09:23:29;10.63;;;7.32;;
57561;SDS011;43397;51.530;5.974;2023-03-01T09:25:55;14.15;;;7.45;;
57561;SDS011;43397;51.530;5.974;2023-03-01T09:28:20;13.35;;;8.50;;
57561;SDS011;43397;51.530;5.974;2023-03-01T09:30:47;17.42;;;10.50;;
57561;SDS011;43397;51.530;5.974;2023-03-01T09:33:13;11.82;;;7.60;;
57561;SDS011;43397;51.530;5.974;2023-03-01T09:35:40;12.18;;;7.40;;
57561;SDS011;43397;51.530;5.974;2023-03-01T09:38:06;12.18;;;9.05;;
57561;SDS011;43397;51.530;5.974;2023-03-01T09:40:32;17.85;;;10.05;;
57561;SDS011;43397;51.530;5.974;2023-03-01T09:43:00;15.93;;;9.77;;
57561;SDS011;43397;51.530;5.974;2023-03-01T09:45:33;13.05;;;8.63;;
57561;SDS011;43397;51.530;5.974;2023-03-01T09:48:00;13.27;;;8.60;;
57561;SDS011;43397;51.530;5.974;2023-03-01T09:50:32;15.65;;;10.40;;
57561;SDS011;43397;51.530;5.974;2023-03-01T09:53:02;16.05;;;10.75;;
57561;SDS011;43397;51.530;5.974;2023-03-01T09:55:31;11.55;;;8.23;;
57561;SDS011;43397;51.530;5.974;2023-03-01T09:58:05;9.93;;;6.95;;
57561;SDS011;43397;51.530;5.974;2023-03-01T10:00:48;14.40;;;8.95;;
57561;SDS011;43397;51.530;5.974;2023-03-01T10:03:16;15.60;;;9.73;;
57561;SDS011;43397;51.530;5.974;2023-03-01T10:05:48;15.70;;;10.43;;
57561;SDS011;43397;51.530;5.974;2023-03-01T10:08:30;16.60;;;9.90;;
57561;SDS011;43397;51.530;5.974;2023-03-01T10:11:00;16.25;;;10.57;;
57561;SDS011;43397;51.530;5.974;2023-03-01T10:13:27;11.68;;;7.72;;
57561;SDS011;43397;51.530;5.974;2023-03-01T10:16:00;10.48;;;7.43;;
57561;SDS011;43397;51.530;5.974;2023-03-01T10:18:29;12.48;;;7.82;;
57561;SDS011;43397;51.530;5.974;2023-03-01T10:21:00;15.85;;;8.57;;
57561;SDS011;43397;51.530;5.974;2023-03-01T10:23:28;14.93;;;8.77;;
57561;SDS011;43397;51.530;5.974;2023-03-01T10:26:02;14.25;;;9.57;;
57561;SDS011;43397;51.530;5.974;2023-03-01T10:28:40;15.18;;;8.68;;
57561;SDS011;43397;51.530;5.974;2023-03-01T10:31:17;9.88;;;7.93;;
57561;SDS011;43397;51.530;5.974;2023-03-01T10:33:45;13.55;;;7.85;;
57561;SDS011;43397;51.530;5.974;2023-03-01T10:36:11;10.55;;;6.63;;
57561;SDS011;43397;51.530;5.974;2023-03-01T10:38:48;9.93;;;7.07;;
57561;SDS011;43397;51.530;5.974;2023-03-01T10:41:16;10.98;;;7.95;;
57561;SDS011;43397;51.530;5.974;2023-03-01T10:43:43;9.43;;;6.22;;
57561;SDS011;43397;51.530;5.974;2023-03-01T10:46:22;11.32;;;7.45;;
57561;SDS011;43397;51.530;5.974;2023-03-01T10:48:55;11.53;;;8.17;;
57561;SDS011;43397;51.530;5.974;2023-03-01T10:51:31;12.60;;;8.85;;
57561;SDS011;43397;51.530;5.974;2023-03-01T10:53:59;9.90;;;6.43;;
57561;SDS011;43397;51.530;5.974;2023-03-01T10:56:26;11.25;;;6.22;;
57561;SDS011;43397;51.530;5.974;2023-03-01T10:58:58;12.07;;;7.45;;
57561;SDS011;43397;51.530;5.974;2023-03-01T11:01:25;10.20;;;7.38;;
57561;SDS011;43397;51.530;5.974;2023-03-01T11:04:03;10.32;;;6.63;;
57561;SDS011;43397;51.530;5.974;2023-03-01T11:06:36;15.50;;;8.50;;
57561;SDS011;43397;51.530;5.974;2023-03-01T11:09:12;11.02;;;7.18;;
57561;SDS011;43397;51.530;5.974;2023-03-01T11:11:39;11.40;;;7.95;;
57561;SDS011;43397;51.530;5.974;2023-03-01T11:14:06;10.55;;;7.57;;
57561;SDS011;43397;51.530;5.974;2023-03-01T11:16:39;12.15;;;6.97;;
57561;SDS011;43397;51.530;5.974;2023-03-01T11:19:14;11.43;;;6.90;;
57561;SDS011;43397;51.530;5.974;2023-03-01T11:21:44;10.18;;;6.45;;
57561;SDS011;43397;51.530;5.974;2023-03-01T11:24:20;12.73;;;8.85;;
57561;SDS011;43397;51.530;5.974;2023-03-01T11:26:53;14.45;;;8.45;;
57561;SDS011;43397;51.530;5.974;2023-03-01T11:29:21;12.98;;;8.38;;
57561;SDS011;43397;51.530;5.974;2023-03-01T11:31:56;12.60;;;8.30;;
57561;SDS011;43397;51.530;5.974;2023-03-01T11:34:28;10.65;;;6.93;;
57561;SDS011;43397;51.530;5.974;2023-03-01T11:37:05;12.77;;;7.75;;
57561;SDS011;43397;51.530;5.974;2023-03-01T11:39:42;10.27;;;6.55;;
57561;SDS011;43397;51.530;5.974;2023-03-01T11:42:12;11.88;;;6.70;;
57561;SDS011;43397;51.530;5.974;2023-03-01T11:44:42;10.30;;;7.43;;
57561;SDS011;43397;51.530;5.974;2023-03-01T11:47:17;9.95;;;7.07;;
57561;SDS011;43397;51.530;5.974;2023-03-01T11:50:12;10.15;;;6.65;;
57561;SDS011;43397;51.530;5.974;2023-03-01T11:52:48;10.68;;;6.10;;
57561;SDS011;43397;51.530;5.974;2023-03-01T11:55:29;11.43;;;7.68;;
57561;SDS011;43397;51.530;5.974;2023-03-01T11:58:05;11.13;;;7.72;;
57561;SDS011;43397;51.530;5.974;2023-03-01T12:06:48;12.32;;;7.05;;
57561;SDS011;43397;51.530;5.974;2023-03-01T12:09:21;9.95;;;7.43;;
57561;SDS011;43397;51.530;5.974;2023-03-01T12:12:04;9.52;;;6.03;;
57561;SDS011;43397;51.530;5.974;2023-03-01T12:14:51;14.75;;;8.45;;
57561;SDS011;43397;51.530;5.974;2023-03-01T12:20:20;9.40;;;6.78;;
57561;SDS011;43397;51.530;5.974;2023-03-01T12:22:57;10.27;;;7.32;;
57561;SDS011;43397;51.530;5.974;2023-03-01T12:25:39;9.77;;;6.72;;
57561;SDS011;43397;51.530;5.974;2023-03-01T12:28:26;11.82;;;7.65;;
57561;SDS011;43397;51.530;5.974;2023-03-01T12:34:13;12.43;;;7.25;;
57561;SDS011;43397;51.530;5.974;2023-03-01T12:36:51;10.38;;;7.68;;
57561;SDS011;43397;51.530;5.974;2023-03-01T12:39:36;12.53;;;8.00;;
57561;SDS011;43397;51.530;5.974;2023-03-01T12:42:15;10.00;;;6.95;;
57561;SDS011;43397;51.530;5.974;2023-03-01T12:47:50;10.38;;;7.25;;
57561;SDS011;43397;51.530;5.974;2023-03-01T12:50:34;9.90;;;6.68;;
57561;SDS011;43397;51.530;5.974;2023-03-01T12:53:06;10.98;;;7.00;;
57561;SDS011;43397;51.530;5.974;2023-03-01T12:55:44;11.45;;;7.25;;
57561;SDS011;43397;51.530;5.974;2023-03-01T12:58:13;10.30;;;7.30;;
57561;SDS011;43397;51.530;5.974;2023-03-01T13:00:51;11.57;;;6.93;;
57561;SDS011;43397;51.530;5.974;2023-03-01T13:03:28;9.68;;;7.10;;
57561;SDS011;43397;51.530;5.974;2023-03-01T13:06:04;21.02;;;13.48;;
57561;SDS011;43397;51.530;5.974;2023-03-01T13:08:37;15.13;;;11.50;;
57561;SDS011;43397;51.530;5.974;2023-03-01T13:11:11;9.82;;;7.00;;
57561;SDS011;43397;51.530;5.974;2023-03-01T13:13:41;12.63;;;7.30;;
57561;SDS011;43397;51.530;5.974;2023-03-01T13:16:20;11.68;;;8.88;;
57561;SDS011;43397;51.530;5.974;2023-03-01T13:19:06;11.20;;;7.88;;
57561;SDS011;43397;51.530;5.974;2023-03-01T13:21:38;13.10;;;8.05;;
57561;SDS011;43397;51.530;5.974;2023-03-01T13:24:04;10.23;;;6.32;;
57561;SDS011;43397;51.530;5.974;2023-03-01T13:29:43;10.10;;;6.03;;
57561;SDS011;43397;51.530;5.974;2023-03-01T13:32:20;10.27;;;7.13;;
57561;SDS011;43397;51.530;5.974;2023-03-01T13:34:50;9.85;;;6.95;;
57561;SDS011;43397;51.530;5.974;2023-03-01T13:37:22;8.88;;;6.47;;
57561;SDS011;43397;51.530;5.974;2023-03-01T13:39:52;11.10;;;7.88;;
57561;SDS011;43397;51.530;5.974;2023-03-01T13:45:16;9.80;;;6.15;;
57561;SDS011;43397;51.530;5.974;2023-03-01T13:47:46;9.13;;;6.78;;
57561;SDS011;43397;51.530;5.974;2023-03-01T13:50:18;13.02;;;7.18;;
57561;SDS011;43397;51.530;5.974;2023-03-01T13:52:49;9.73;;;6.03;;
57561;SDS011;43397;51.530;5.974;2023-03-01T13:55:18;10.95;;;7.03;;
57561;SDS011;43397;51.530;5.974;2023-03-01T13:57:47;12.15;;;9.07;;
57561;SDS011;43397;51.530;5.974;2023-03-01T14:00:32;11.23;;;6.70;;
57561;SDS011;43397;51.530;5.974;2023-03-01T14:03:05;10.25;;;7.22;;
57561;SDS011;43397;51.530;5.974;2023-03-01T14:05:36;10.75;;;7.68;;
57561;SDS011;43397;51.530;5.974;2023-03-01T14:08:02;10.48;;;6.32;;
57561;SDS011;43397;51.530;5.974;2023-03-01T14:10:30;11.52;;;7.72;;
57561;SDS011;43397;51.530;5.974;2023-03-01T14:13:13;11.20;;;6.65;;
57561;SDS011;43397;51.530;5.974;2023-03-01T14:16:00;12.93;;;8.05;;
57561;SDS011;43397;51.530;5.974;2023-03-01T14:18:41;13.48;;;8.60;;
57561;SDS011;43397;51.530;5.974;2023-03-01T14:21:13;12.00;;;6.93;;
57561;SDS011;43397;51.530;5.974;2023-03-01T14:23:41;12.00;;;7.17;;
57561;SDS011;43397;51.530;5.974;2023-03-01T14:26:07;10.52;;;6.82;;
57561;SDS011;43397;51.530;5.974;2023-03-01T14:28:34;12.07;;;7.93;;
57561;SDS011;43397;51.530;5.974;2023-03-01T14:31:02;10.15;;;6.53;;
57561;SDS011;43397;51.530;5.974;2023-03-01T14:33:55;12.65;;;8.30;;
57561;SDS011;43397;51.530;5.974;2023-03-01T14:36:25;15.73;;;9.75;;
57561;SDS011;43397;51.530;5.974;2023-03-01T14:38:52;13.70;;;9.05;;
57561;SDS011;43397;51.530;5.974;2023-03-01T14:41:18;11.48;;;8.02;;
57561;SDS011;43397;51.530;5.974;2023-03-01T14:43:46;12.82;;;7.95;;
57561;SDS011;43397;51.530;5.974;2023-03-01T14:46:19;11.23;;;6.07;;
57561;SDS011;43397;51.530;5.974;2023-03-01T14:48:47;12.38;;;8.45;;
57561;SDS011;43397;51.530;5.974;2023-03-01T14:51:16;12.60;;;8.57;;
57561;SDS011;43397;51.530;5.974;2023-03-01T14:53:42;11.27;;;5.68;;
57561;SDS011;43397;51.530;5.974;2023-03-01T14:56:12;10.65;;;7.30;;
57561;SDS011;43397;51.530;5.974;2023-03-01T14:58:39;12.93;;;7.18;;
57561;SDS011;43397;51.530;5.974;2023-03-01T15:01:05;12.95;;;8.13;;
57561;SDS011;43397;51.530;5.974;2023-03-01T15:03:32;12.98;;;7.85;;
57561;SDS011;43397;51.530;5.974;2023-03-01T15:08:28;13.27;;;8.23;;